createdAt,value
2018-11-11T00:00:12.226Z,8.67
2018-11-11T00:02:40.754Z,8.68
2018-11-11T00:05:10.355Z,8.67
2018-11-11T00:07:38.861Z,8.70
2018-11-11T00:10:07.526Z,8.69
2018-11-11T00:12:36.201Z,8.70
2018-11-11T00:15:05.346Z,8.70
2018-11-11T00:17:33.876Z,8.70
2018-11-11T00:20:02.861Z,8.69
2018-11-11T00:22:31.519Z,8.71
2018-11-11T00:24:59.973Z,8.70
2018-11-11T00:27:28.897Z,8.70
2018-11-11T00:29:57.372Z,8.70
2018-11-11T00:32:25.850Z,8.71
2018-11-11T00:34:54.513Z,8.71
2018-11-11T00:37:23.022Z,8.71
2018-11-11T00:39:51.817Z,8.71
2018-11-11T00:42:20.954Z,8.70
2018-11-11T00:44:49.421Z,8.70
2018-11-11T00:47:17.986Z,8.70
2018-11-11T00:49:47.001Z,8.69
2018-11-11T00:52:15.477Z,8.69
2018-11-11T00:54:43.957Z,8.69
2018-11-11T00:57:12.813Z,8.69
2018-11-11T00:59:41.250Z,8.69
2018-11-11T01:02:09.725Z,8.70
2018-11-11T01:04:38.543Z,8.70
2018-11-11T01:07:07.029Z,8.67
2018-11-11T01:09:35.518Z,8.52
2018-11-11T01:12:04.894Z,8.68
2018-11-11T01:14:33.346Z,8.69
2018-11-11T01:17:01.809Z,8.68
2018-11-11T01:19:30.963Z,8.67
2018-11-11T01:21:59.404Z,8.65
2018-11-11T01:24:28.105Z,8.68
2018-11-11T01:26:57.035Z,8.68
2018-11-11T01:29:25.496Z,8.67
2018-11-11T01:31:53.973Z,8.68
2018-11-11T01:34:23.218Z,8.69
2018-11-11T01:36:51.697Z,8.70
2018-11-11T01:39:20.199Z,8.71
2018-11-11T01:41:49.150Z,8.71
2018-11-11T01:44:18.591Z,8.71
2018-11-11T01:46:47.038Z,8.72
2018-11-11T01:49:15.745Z,8.73
2018-11-11T01:51:44.214Z,8.73
2018-11-11T01:54:12.678Z,8.73
2018-11-11T01:56:41.772Z,8.75
2018-11-11T01:59:10.247Z,8.71
2018-11-11T02:01:38.760Z,8.75
2018-11-11T02:04:07.592Z,8.76
2018-11-11T02:06:36.090Z,8.75
2018-11-11T02:09:07.353Z,8.75
2018-11-11T02:11:36.382Z,8.76
2018-11-11T02:14:04.919Z,8.75
2018-11-11T02:16:33.702Z,8.77
2018-11-11T02:19:02.298Z,8.78
2018-11-11T02:21:30.975Z,8.76
2018-11-11T02:23:59.501Z,8.77
2018-11-11T02:26:28.637Z,8.76
2018-11-11T02:28:57.066Z,8.76
2018-11-11T02:31:25.548Z,8.78
2018-11-11T02:33:54.574Z,8.78
2018-11-11T02:36:23.197Z,8.78
2018-11-11T02:38:51.821Z,8.78
2018-11-11T02:41:21.221Z,8.81
2018-11-11T02:43:49.670Z,8.79
2018-11-11T02:46:18.175Z,8.81
2018-11-11T02:48:47.581Z,8.79
2018-11-11T02:51:16.052Z,8.79
2018-11-11T02:53:44.749Z,8.81
2018-11-11T02:56:13.637Z,8.82
2018-11-11T02:58:42.096Z,8.82
2018-11-11T03:01:10.572Z,8.83
2018-11-11T03:03:39.813Z,8.82
2018-11-11T03:06:08.273Z,8.83
2018-11-11T03:08:37.057Z,8.83
2018-11-11T03:11:05.858Z,8.81
2018-11-11T03:13:34.305Z,8.82
2018-11-11T03:16:02.786Z,8.81
2018-11-11T03:18:31.807Z,8.83
2018-11-11T03:21:00.269Z,8.82
2018-11-11T03:23:28.762Z,8.81
2018-11-11T03:25:57.462Z,8.82
2018-11-11T03:28:26.149Z,8.82
2018-11-11T03:30:54.647Z,8.82
2018-11-11T03:33:23.372Z,8.82
2018-11-11T03:35:51.856Z,8.81
2018-11-11T03:38:20.333Z,8.80
2018-11-11T03:40:49.288Z,8.78
2018-11-11T03:43:17.733Z,8.78
2018-11-11T03:45:46.222Z,8.78
2018-11-11T03:48:15.261Z,8.77
2018-11-11T03:50:43.759Z,8.77
2018-11-11T03:53:12.258Z,8.77
2018-11-11T03:55:41.015Z,8.78
2018-11-11T03:58:09.579Z,8.77
2018-11-11T04:00:38.059Z,8.77
2018-11-11T04:03:06.926Z,8.76
2018-11-11T04:05:35.378Z,8.76
2018-11-11T04:08:03.891Z,8.76
2018-11-11T04:10:33.185Z,8.79
2018-11-11T04:13:01.507Z,8.78
2018-11-11T04:15:29.973Z,8.78
2018-11-11T04:17:59.093Z,8.78
2018-11-11T04:20:27.559Z,8.79
2018-11-11T04:22:56.073Z,8.80
2018-11-11T04:25:24.671Z,8.81
2018-11-11T04:27:53.117Z,8.79
2018-11-11T04:30:22.173Z,8.79
2018-11-11T04:32:50.821Z,8.78
2018-11-11T04:35:19.272Z,8.78
2018-11-11T04:37:47.745Z,8.78
2018-11-11T04:40:16.384Z,8.78
2018-11-11T04:42:44.848Z,8.77
2018-11-11T04:45:14.769Z,8.78
2018-11-11T04:47:45.031Z,8.78
2018-11-11T04:50:15.625Z,8.78
2018-11-11T04:52:44.928Z,8.78
2018-11-11T04:55:13.678Z,8.78
2018-11-11T04:57:42.725Z,8.77
2018-11-11T05:00:12.453Z,8.76
2018-11-11T05:02:41.821Z,8.75
2018-11-11T05:05:11.535Z,8.76
2018-11-11T05:07:40.489Z,8.76
2018-11-11T05:10:09.786Z,8.74
2018-11-11T05:12:38.287Z,8.75
2018-11-11T05:15:07.916Z,8.73
2018-11-11T05:17:36.703Z,8.75
2018-11-11T05:20:05.950Z,8.74
2018-11-11T05:22:34.878Z,8.75
2018-11-11T05:25:03.571Z,8.75
2018-11-11T05:27:32.018Z,8.76
2018-11-11T05:30:00.816Z,8.75
2018-11-11T05:32:29.522Z,8.74
2018-11-11T05:34:57.976Z,8.72
2018-11-11T05:37:26.961Z,8.72
2018-11-11T05:39:55.795Z,8.71
2018-11-11T05:42:24.281Z,8.71
2018-11-11T05:44:53.245Z,8.72
2018-11-11T05:47:21.770Z,8.73
2018-11-11T05:49:50.254Z,8.73
2018-11-11T05:52:18.817Z,8.72
2018-11-11T05:54:47.401Z,8.73
2018-11-11T05:57:15.849Z,8.73
2018-11-11T05:59:44.809Z,8.75
2018-11-11T06:02:13.365Z,8.73
2018-11-11T06:04:41.814Z,8.73
2018-11-11T06:07:10.478Z,8.72
2018-11-11T06:09:39.029Z,8.72
2018-11-11T06:12:07.497Z,8.72
2018-11-11T06:14:36.067Z,8.69
2018-11-11T06:17:04.846Z,8.65
2018-11-11T06:19:33.318Z,8.64
2018-11-11T06:22:02.217Z,8.64
2018-11-11T06:24:30.754Z,8.62
2018-11-11T06:26:59.253Z,8.59
2018-11-11T06:29:28.113Z,8.57
2018-11-11T06:31:56.660Z,8.58
2018-11-11T06:34:25.780Z,8.57
2018-11-11T06:36:54.717Z,8.57
2018-11-11T06:39:23.351Z,8.57
2018-11-11T06:41:51.877Z,8.55
2018-11-11T06:44:20.785Z,8.56
2018-11-11T06:46:49.677Z,8.54
2018-11-11T06:49:18.127Z,8.54
2018-11-11T06:51:46.878Z,8.54
2018-11-11T06:54:16.045Z,8.54
2018-11-11T06:56:44.501Z,8.55
2018-11-11T06:59:13.382Z,8.55
2018-11-11T07:01:42.114Z,8.56
2018-11-11T07:04:10.570Z,8.58
2018-11-11T07:06:39.570Z,8.57
2018-11-11T07:09:08.146Z,8.55
2018-11-11T07:11:36.601Z,8.55
2018-11-11T07:14:05.646Z,8.53
2018-11-11T07:16:34.245Z,8.54
2018-11-11T07:19:02.682Z,8.54
2018-11-11T07:21:31.668Z,8.55
2018-11-11T07:24:00.691Z,8.56
2018-11-11T07:26:29.101Z,8.58
2018-11-11T07:28:57.689Z,8.57
2018-11-11T07:31:26.375Z,8.58
2018-11-11T07:33:54.935Z,8.58
2018-11-11T07:36:23.674Z,8.57
2018-11-11T07:38:52.218Z,8.58
2018-11-11T07:41:20.707Z,8.61
2018-11-11T07:43:49.553Z,8.62
2018-11-11T07:46:18.498Z,8.64
2018-11-11T07:48:46.945Z,8.66
2018-11-11T07:51:16.003Z,8.67
2018-11-11T07:53:44.868Z,8.68
2018-11-11T07:56:13.342Z,8.69
2018-11-11T07:58:41.950Z,8.70
2018-11-11T08:01:10.862Z,8.70
2018-11-11T08:03:39.320Z,8.71
2018-11-11T08:06:08.114Z,8.72
2018-11-11T08:08:36.628Z,8.72
2018-11-11T08:11:16.497Z,8.73
2018-11-11T08:13:45.103Z,8.72
2018-11-11T08:16:13.556Z,8.75
2018-11-11T08:18:42.219Z,8.74
2018-11-11T08:21:11.097Z,8.75
2018-11-11T08:23:39.549Z,8.77
2018-11-11T08:26:08.130Z,8.77
2018-11-11T08:28:36.667Z,8.79
2018-11-11T08:31:05.281Z,8.80
2018-11-11T08:33:33.895Z,8.81
2018-11-11T08:36:02.602Z,8.83
2018-11-11T08:38:31.173Z,8.88
2018-11-11T08:41:00.227Z,8.92
2018-11-11T08:43:28.993Z,8.94
2018-11-11T08:45:57.441Z,8.96
2018-11-11T08:48:26.218Z,8.97
2018-11-11T08:50:55.099Z,8.96
2018-11-11T08:53:23.537Z,9.01
2018-11-11T08:55:52.158Z,9.03
2018-11-11T08:58:21.173Z,9.03
2018-11-11T09:00:49.725Z,9.01
2018-11-11T09:03:18.599Z,9.01
2018-11-11T09:05:47.185Z,9.03
2018-11-11T09:08:15.626Z,9.04
2018-11-11T09:10:44.588Z,9.03
2018-11-11T09:13:13.245Z,9.06
2018-11-11T09:15:41.881Z,9.07
2018-11-11T09:18:10.654Z,9.05
2018-11-11T09:20:39.544Z,9.11
2018-11-11T09:23:08.005Z,9.11
2018-11-11T09:25:36.757Z,9.13
2018-11-11T09:28:06.041Z,9.13
2018-11-11T09:30:34.567Z,9.16
2018-11-11T09:33:03.390Z,9.16
2018-11-11T09:35:32.282Z,9.14
2018-11-11T09:38:00.729Z,9.20
2018-11-11T09:40:29.742Z,9.21
2018-11-11T09:42:58.639Z,9.21
2018-11-11T09:45:27.097Z,9.20
2018-11-11T09:47:55.695Z,9.20
2018-11-11T09:50:24.378Z,9.19
2018-11-11T09:52:52.856Z,9.21
2018-11-11T09:55:21.458Z,9.20
2018-11-11T09:57:50.037Z,9.19
2018-11-11T10:00:19.966Z,9.20
2018-11-11T10:03:03.998Z,9.21
2018-11-11T10:07:39.233Z,9.25
2018-11-11T10:10:12.087Z,9.25
2018-11-11T10:12:44.939Z,9.26
2018-11-11T10:15:32.130Z,9.26
2018-11-11T10:18:05.757Z,9.24
2018-11-11T10:20:41.552Z,9.22
2018-11-11T10:23:44.045Z,9.22
2018-11-11T10:26:26.598Z,9.21
2018-11-11T10:29:05.704Z,9.22
2018-11-11T10:31:41.961Z,9.21
2018-11-11T10:34:46.142Z,9.25
2018-11-11T10:37:17.446Z,9.20
2018-11-11T10:39:54.823Z,9.15
2018-11-11T10:42:48.168Z,9.10
2018-11-11T10:45:21.793Z,9.12
2018-11-11T10:47:59.820Z,9.14
2018-11-11T10:50:45.505Z,9.13
2018-11-11T10:53:14.666Z,9.13
2018-11-11T10:55:43.106Z,9.13
2018-11-11T10:58:11.560Z,9.16
2018-11-11T11:00:45.405Z,9.15
2018-11-11T11:03:19.258Z,9.13
2018-11-11T11:05:47.949Z,9.16
2018-11-11T11:08:16.368Z,9.16
2018-11-11T11:10:44.851Z,9.17
2018-11-11T11:13:14.327Z,9.16
2018-11-11T11:15:42.779Z,9.21
2018-11-11T11:18:11.260Z,9.17
2018-11-11T11:20:39.957Z,9.19
2018-11-11T11:23:08.532Z,9.18
2018-11-11T11:25:37.027Z,9.20
2018-11-11T11:28:06.093Z,9.17
2018-11-11T11:30:34.552Z,9.16
2018-11-11T11:33:03.021Z,9.16
2018-11-11T11:35:32.464Z,9.14
2018-11-11T11:38:01.000Z,9.13
2018-11-11T11:40:29.668Z,9.11
2018-11-11T11:42:58.822Z,9.13
2018-11-11T11:45:27.326Z,9.09
2018-11-11T11:47:55.777Z,9.10
2018-11-11T11:50:24.932Z,9.10
2018-11-11T11:52:53.662Z,9.09
2018-11-11T11:55:22.177Z,9.04
2018-11-11T11:58:02.200Z,9.08
2018-11-11T12:00:30.653Z,9.07
2018-11-11T12:02:59.199Z,9.05
2018-11-11T12:05:27.968Z,9.04
2018-11-11T12:07:56.638Z,9.03
2018-11-11T12:10:25.196Z,9.01
2018-11-11T12:12:54.795Z,8.96
2018-11-11T12:15:23.259Z,8.95
2018-11-11T12:17:51.715Z,8.96
2018-11-11T12:20:20.616Z,8.96
2018-11-11T12:22:49.068Z,8.96
2018-11-11T12:25:17.533Z,8.96
2018-11-11T12:27:46.528Z,8.93
2018-11-11T12:30:15.029Z,8.90
2018-11-11T12:32:43.544Z,8.88
2018-11-11T12:35:12.985Z,8.87
2018-11-11T12:37:41.385Z,8.82
2018-11-11T12:40:11.221Z,8.78
2018-11-11T12:42:40.125Z,8.73
2018-11-11T12:45:09.917Z,8.68
2018-11-11T12:47:38.397Z,8.65
2018-11-11T12:50:08.147Z,8.63
2018-11-11T12:52:36.702Z,8.59
2018-11-11T12:55:05.275Z,8.56
2018-11-11T12:57:34.438Z,8.53
2018-11-11T13:00:02.925Z,7.76
2018-11-11T13:02:31.397Z,8.50
2018-11-11T13:05:00.110Z,8.50
2018-11-11T13:07:29.049Z,8.47
2018-11-11T13:09:57.507Z,8.45
2018-11-11T13:12:26.714Z,8.43
2018-11-11T13:14:55.089Z,8.42
2018-11-11T13:17:23.546Z,8.39
2018-11-11T13:19:52.249Z,8.35
2018-11-11T13:22:21.017Z,8.34
2018-11-11T13:24:49.477Z,8.32
2018-11-11T13:27:18.284Z,8.32
2018-11-11T13:29:46.850Z,8.30
2018-11-11T13:32:15.305Z,8.29
2018-11-11T13:34:44.728Z,8.27
2018-11-11T13:37:13.261Z,8.29
2018-11-11T13:39:41.713Z,8.27
2018-11-11T13:42:10.372Z,8.27
2018-11-11T13:44:38.850Z,8.28
2018-11-11T13:47:07.801Z,8.26
2018-11-11T13:49:36.605Z,8.25
2018-11-11T13:52:05.421Z,8.23
2018-11-11T13:54:33.850Z,8.20
2018-11-11T13:57:02.899Z,8.20
2018-11-11T13:59:31.406Z,8.19
2018-11-11T14:01:59.857Z,8.15
2018-11-11T14:04:29.061Z,8.11
2018-11-11T14:06:57.559Z,8.07
2018-11-11T14:09:26.155Z,8.06
2018-11-11T14:11:54.821Z,8.06
2018-11-11T14:14:23.355Z,8.02
2018-11-11T14:16:51.798Z,8.00
2018-11-11T14:19:21.336Z,7.98
2018-11-11T14:21:49.671Z,7.97
2018-11-11T14:24:18.149Z,7.94
2018-11-11T14:26:47.305Z,7.91
2018-11-11T14:29:15.625Z,7.89
2018-11-11T14:31:44.317Z,7.88
2018-11-11T14:34:13.469Z,7.88
2018-11-11T14:36:41.988Z,7.85
2018-11-11T14:39:12.733Z,7.81
2018-11-11T14:41:42.546Z,7.80
2018-11-11T14:44:11.412Z,7.79
2018-11-11T14:46:40.613Z,7.77
2018-11-11T14:49:10.117Z,7.77
2018-11-11T14:51:38.653Z,7.77
2018-11-11T14:54:07.337Z,7.77
2018-11-11T14:56:36.306Z,7.78
2018-11-11T14:59:05.108Z,7.78
2018-11-11T15:01:33.665Z,7.79
2018-11-11T15:04:02.617Z,7.78
2018-11-11T15:06:31.333Z,7.77
2018-11-11T15:08:59.809Z,7.77
2018-11-11T15:11:28.991Z,7.77
2018-11-11T15:13:57.458Z,7.74
2018-11-11T15:16:25.898Z,7.74
2018-11-11T15:18:55.064Z,7.73
2018-11-11T15:21:23.529Z,7.72
2018-11-11T15:23:52.156Z,7.73
2018-11-11T15:26:21.094Z,7.73
2018-11-11T15:28:49.550Z,7.73
2018-11-11T15:31:18.463Z,7.74
2018-11-11T15:33:47.358Z,7.74
2018-11-11T15:36:15.834Z,7.74
2018-11-11T15:38:44.322Z,7.76
2018-11-11T15:41:13.265Z,7.76
2018-11-11T15:43:41.696Z,7.77
2018-11-11T15:46:10.530Z,7.78
2018-11-11T15:48:39.320Z,7.79
2018-11-11T15:51:08.098Z,7.80
2018-11-11T15:53:36.601Z,7.81
2018-11-11T15:56:05.951Z,7.81
2018-11-11T15:58:34.562Z,7.82
2018-11-11T16:01:03.052Z,7.84
2018-11-11T16:03:31.706Z,7.84
2018-11-11T16:06:00.470Z,7.84
2018-11-11T16:08:28.913Z,7.84
2018-11-11T16:10:58.102Z,7.85
2018-11-11T16:13:26.571Z,7.85
2018-11-11T16:15:55.042Z,7.86
2018-11-11T16:18:23.935Z,7.84
2018-11-11T16:20:52.393Z,7.85
2018-11-11T16:23:20.889Z,7.86
2018-11-11T16:25:50.161Z,7.87
2018-11-11T16:28:18.697Z,7.88
2018-11-11T16:30:47.485Z,7.89
2018-11-11T16:33:16.827Z,7.88
2018-11-11T16:35:45.355Z,7.88
2018-11-11T16:38:13.793Z,7.72
2018-11-11T16:40:42.837Z,7.87
2018-11-11T16:43:11.255Z,7.86
2018-11-11T16:45:39.728Z,7.86
2018-11-11T16:48:08.959Z,7.85
2018-11-11T16:50:38.022Z,7.83
2018-11-11T16:53:08.497Z,7.82
2018-11-11T16:55:37.773Z,7.82
2018-11-11T16:58:06.313Z,7.81
2018-11-11T17:00:36.437Z,7.81
2018-11-11T17:03:05.870Z,7.81
2018-11-11T17:05:35.731Z,7.81
2018-11-11T17:08:04.320Z,7.81
2018-11-11T17:10:34.500Z,7.80
2018-11-11T17:13:04.954Z,7.80
2018-11-11T17:15:33.957Z,7.78
2018-11-11T17:18:02.613Z,7.79
2018-11-11T17:20:31.826Z,7.82
2018-11-11T17:23:02.032Z,7.84
2018-11-11T17:25:31.198Z,7.85
2018-11-11T17:27:59.984Z,7.81
2018-11-11T17:30:35.648Z,7.79
2018-11-11T17:33:04.716Z,7.77
2018-11-11T17:35:33.162Z,7.76
2018-11-11T17:38:02.438Z,7.74
2018-11-11T17:40:31.489Z,7.74
2018-11-11T17:43:01.202Z,7.74
2018-11-11T17:45:30.236Z,7.72
2018-11-11T17:47:58.869Z,7.69
2018-11-11T17:50:28.874Z,7.68
2018-11-11T17:52:58.165Z,7.65
2018-11-11T17:55:27.849Z,7.65
2018-11-11T17:57:56.287Z,7.63
2018-11-11T18:00:26.156Z,7.62
2018-11-11T18:02:55.017Z,7.61
2018-11-11T18:05:24.932Z,7.58
2018-11-11T18:07:53.903Z,7.55
2018-11-11T18:10:23.384Z,7.54
2018-11-11T18:12:51.841Z,7.52
2018-11-11T18:15:22.905Z,7.52
2018-11-11T18:17:51.391Z,7.50
2018-11-11T18:20:21.386Z,7.49
2018-11-11T18:22:51.089Z,7.49
2018-11-11T18:25:19.866Z,7.47
2018-11-11T18:27:48.386Z,7.48
2018-11-11T18:30:20.989Z,7.48
2018-11-11T18:32:49.806Z,7.48
2018-11-11T18:35:19.007Z,7.48
2018-11-11T18:37:48.035Z,7.50
2018-11-11T18:40:18.734Z,7.47
2018-11-11T18:42:47.244Z,7.46
2018-11-11T18:45:20.178Z,7.44
2018-11-11T18:47:49.838Z,7.43
2018-11-11T18:50:20.347Z,7.43
2018-11-11T18:52:48.984Z,7.43
2018-11-11T18:55:17.529Z,7.40
2018-11-11T18:57:46.605Z,7.39
2018-11-11T19:00:23.039Z,7.39
2018-11-11T19:02:52.235Z,7.38
2018-11-11T19:05:21.551Z,7.35
2018-11-11T19:07:50.930Z,7.34
2018-11-11T19:10:23.493Z,7.33
2018-11-11T19:12:53.663Z,7.32
2018-11-11T19:15:22.545Z,7.33
2018-11-11T19:17:51.850Z,7.32
2018-11-11T19:20:21.835Z,7.31
2018-11-11T19:22:50.404Z,7.29
2018-11-11T19:25:20.987Z,7.28
2018-11-11T19:27:50.948Z,7.28
2018-11-11T19:30:20.350Z,7.27
2018-11-11T19:32:49.484Z,7.26
2018-11-11T19:35:18.385Z,7.29
2018-11-11T19:37:48.125Z,7.29
2018-11-11T19:40:17.984Z,7.30
2018-11-11T19:42:46.828Z,7.30
2018-11-11T19:45:16.914Z,7.29
2018-11-11T19:47:45.618Z,7.27
2018-11-11T19:50:16.737Z,7.25
2018-11-11T19:55:27.899Z,7.23
2018-11-11T19:57:57.027Z,7.23
2018-11-11T20:00:26.642Z,7.24
2018-11-11T20:02:56.233Z,7.25
2018-11-11T20:05:25.266Z,7.26
2018-11-11T20:07:55.253Z,7.25
2018-11-11T20:10:25.027Z,7.25
2018-11-11T20:12:53.789Z,5.72
2018-11-11T20:15:23.841Z,7.23
2018-11-11T20:17:52.476Z,7.22
2018-11-11T20:20:22.264Z,7.23
2018-11-11T20:22:50.877Z,7.21
2018-11-11T20:25:20.409Z,7.23
2018-11-11T20:27:50.487Z,7.24
2018-11-11T20:30:21.495Z,7.24
2018-11-11T20:32:50.301Z,7.25
2018-11-11T20:35:20.254Z,7.24
2018-11-11T20:37:48.922Z,7.27
2018-11-11T20:40:18.814Z,7.27
2018-11-11T20:42:47.611Z,7.28
2018-11-11T20:45:17.456Z,7.28
2018-11-11T20:47:46.602Z,7.28
2018-11-11T20:50:17.293Z,7.30
2018-11-11T20:52:46.837Z,7.31
2018-11-11T20:55:15.877Z,7.32
2018-11-11T20:57:44.460Z,7.30
2018-11-11T21:00:18.491Z,7.29
2018-11-11T21:02:47.402Z,7.29
2018-11-11T21:05:17.410Z,7.30
2018-11-11T21:07:46.309Z,7.28
2018-11-11T21:10:19.497Z,7.28
2018-11-11T21:12:48.182Z,7.27
2018-11-11T21:15:17.959Z,7.27
2018-11-11T21:17:47.139Z,7.27
2018-11-11T21:20:17.160Z,7.26
2018-11-11T21:22:45.638Z,7.26
2018-11-11T21:25:14.578Z,7.26
2018-11-11T21:27:44.345Z,7.25
2018-11-11T21:30:15.763Z,7.28
2018-11-11T21:32:44.588Z,7.29
2018-11-11T21:35:13.786Z,7.30
2018-11-11T21:37:42.880Z,7.33
2018-11-11T21:40:15.016Z,7.35
2018-11-11T21:42:44.963Z,7.38
2018-11-11T21:45:15.524Z,7.41
2018-11-11T21:47:44.521Z,7.42
2018-11-11T21:50:18.482Z,7.43
2018-11-11T21:53:50.411Z,7.44
2018-11-11T21:56:19.251Z,7.45
2018-11-11T21:58:47.767Z,7.45
2018-11-11T22:01:16.813Z,7.28
2018-11-11T22:03:45.453Z,7.45
2018-11-11T22:06:14.152Z,7.47
2018-11-11T22:08:43.197Z,7.46
2018-11-11T22:11:11.847Z,7.48
2018-11-11T22:13:40.584Z,7.49
2018-11-11T22:16:09.685Z,7.49
2018-11-11T22:18:38.919Z,7.49
2018-11-11T22:21:07.631Z,7.48
2018-11-11T22:23:37.197Z,7.49
2018-11-11T22:26:06.023Z,7.51
2018-11-11T22:28:34.512Z,7.51
2018-11-11T22:31:03.924Z,7.51
2018-11-11T22:33:32.684Z,7.51
2018-11-11T22:36:01.121Z,7.51
2018-11-11T22:38:30.106Z,7.52
2018-11-11T22:41:01.426Z,7.53
2018-11-11T22:43:29.918Z,7.53
2018-11-11T22:45:58.574Z,7.52
2018-11-11T22:48:27.058Z,7.52
2018-11-11T22:50:55.561Z,7.52
2018-11-11T22:53:24.697Z,7.52
2018-11-11T22:55:53.161Z,7.52
2018-11-11T22:58:21.718Z,7.52
2018-11-11T23:00:55.552Z,7.53
2018-11-11T23:03:24.461Z,7.53
2018-11-11T23:05:52.911Z,7.51
2018-11-11T23:08:21.465Z,7.51
2018-11-11T23:10:50.161Z,7.51
2018-11-11T23:13:18.590Z,7.51
2018-11-11T23:15:47.174Z,7.52
2018-11-11T23:18:15.745Z,7.52
2018-11-11T23:20:44.187Z,7.53
2018-11-11T23:23:12.823Z,7.54
2018-11-11T23:25:41.465Z,7.54
2018-11-11T23:28:09.947Z,7.54
2018-11-11T23:30:39.011Z,7.55
2018-11-11T23:33:07.556Z,7.54
2018-11-11T23:35:36.179Z,7.55
2018-11-11T23:38:05.329Z,7.55
2018-11-11T23:40:33.933Z,7.56
2018-11-11T23:43:02.469Z,7.57
2018-11-11T23:45:31.376Z,7.46
2018-11-11T23:48:00.139Z,7.59
2018-11-11T23:50:28.570Z,7.61
2018-11-11T23:52:57.384Z,7.62
2018-11-11T23:55:26.252Z,7.64
2018-11-11T23:57:54.693Z,7.64
